Time;durP1;ratioP1;P1;durP2;ratioP2;P2;SDS_P1;SDS_P2;PMS_P1;PMS_P2;Temp;Humidity;BMP_temperature;BMP_pressure;BME280_temperature;BME280_humidity;BME280_pressure;Samples;Min_cycle;Max_cycle;Signal;HPM_P1;HPM_P2
2023/12/10 00:02:00;;;;;;;13.48;2.97;;;9.20;87.10;;;;;;4902728;29;21599;-86
2023/12/10 00:04:25;;;;;;;13.80;2.42;;;9.30;87.60;;;;;;4896997;29;20103;-86
2023/12/10 00:06:51;;;;;;;18.40;2.17;;;9.30;88.80;;;;;;4897896;29;20785;-86
2023/12/10 00:09:17;;;;;;;13.40;2.85;;;9.50;87.70;;;;;;4894662;29;20067;-86
2023/12/10 00:11:43;;;;;;;14.63;2.20;;;9.30;88.20;;;;;;4901039;29;20692;-86
2023/12/10 00:14:08;;;;;;;14.15;2.70;;;9.40;88.30;;;;;;4904473;29;20476;-86
2023/12/10 00:16:34;;;;;;;12.40;1.85;;;9.30;89.00;;;;;;4900033;29;20374;-86
2023/12/10 00:19:00;;;;;;;14.95;2.33;;;9.20;89.50;;;;;;4901917;29;20066;-86
2023/12/10 00:21:25;;;;;;;18.95;2.80;;;9.20;90.30;;;;;;4899301;29;20123;-84
2023/12/10 00:23:51;;;;;;;16.58;2.58;;;9.00;90.20;;;;;;4900421;29;20047;-84
2023/12/10 00:26:17;;;;;;;16.05;2.03;;;9.00;90.40;;;;;;4900112;29;20109;-86
2023/12/10 00:28:43;;;;;;;15.02;2.92;;;9.30;90.10;;;;;;4901467;29;20753;-86
2023/12/10 00:31:09;;;;;;;12.48;1.80;;;9.20;90.50;;;;;;4902724;29;20098;-84
2023/12/10 00:33:35;;;;;;;14.15;2.20;;;9.20;90.90;;;;;;4903071;29;20074;-86
2023/12/10 00:36:00;;;;;;;20.52;2.45;;;9.20;91.20;;;;;;4899120;29;20032;-86
2023/12/10 00:38:26;;;;;;;13.38;2.35;;;9.10;91.50;;;;;;4901211;29;20540;-86
2023/12/10 00:40:52;;;;;;;15.13;2.70;;;9.00;92.20;;;;;;4896643;29;20416;-86
2023/12/10 00:43:17;;;;;;;10.38;1.95;;;9.00;92.40;;;;;;4901627;29;20044;-85
2023/12/10 00:45:44;;;;;;;19.08;2.60;;;9.00;92.90;;;;;;4927147;29;20039;-85
2023/12/10 00:48:12;;;;;;;14.48;2.25;;;9.00;92.80;;;;;;4925673;29;20028;-85
2023/12/10 00:50:38;;;;;;;14.18;3.13;;;9.00;93.00;;;;;;4928696;29;20034;-85
2023/12/10 00:53:04;;;;;;;16.15;2.08;;;9.20;92.80;;;;;;4928587;28;20084;-85
2023/12/10 00:55:30;;;;;;;25.23;4.07;;;9.20;93.30;;;;;;4922036;29;20032;-85
2023/12/10 00:57:55;;;;;;;15.07;2.60;;;9.20;93.90;;;;;;4897442;29;20217;-85
2023/12/10 01:00:21;;;;;;;21.80;2.92;;;9.10;94.70;;;;;;4900315;29;20827;-85
2023/12/10 01:02:48;;;;;;;17.92;2.72;;;9.00;95.40;;;;;;4908023;29;21031;-84
2023/12/10 01:05:14;;;;;;;21.20;2.22;;;9.00;95.90;;;;;;4901945;29;20028;-85
2023/12/10 01:07:39;;;;;;;19.33;3.33;;;9.00;96.50;;;;;;4888566;29;20660;-86
2023/12/10 01:10:05;;;;;;;17.73;2.67;;;9.10;96.80;;;;;;4898259;29;20116;-85
2023/12/10 01:12:36;;;;;;;20.75;3.42;;;9.20;96.90;;;;;;4902113;29;20032;-86
2023/12/10 01:15:05;;;;;;;18.35;3.45;;;9.20;97.50;;;;;;4895373;29;20028;-84
2023/12/10 01:17:32;;;;;;;27.38;3.78;;;9.20;97.60;;;;;;4900345;29;20270;-86
2023/12/10 01:19:59;;;;;;;23.63;3.30;;;9.10;97.70;;;;;;4901087;29;20024;-85
2023/12/10 01:22:25;;;;;;;16.73;3.10;;;9.20;98.00;;;;;;4901076;29;20224;-86
2023/12/10 01:24:52;;;;;;;22.05;2.30;;;9.10;98.00;;;;;;4899181;29;20040;-85
2023/12/10 01:27:18;;;;;;;20.70;2.95;;;9.20;98.10;;;;;;4898656;29;20397;-85
2023/12/10 01:29:44;;;;;;;18.27;2.75;;;9.20;98.00;;;;;;4900501;29;20218;-86
2023/12/10 01:32:11;;;;;;;19.30;3.22;;;9.20;98.10;;;;;;4896732;29;20428;-85
2023/12/10 01:34:37;;;;;;;22.23;3.25;;;9.10;98.30;;;;;;4899810;29;20095;-84
2023/12/10 01:37:03;;;;;;;18.05;2.65;;;9.10;98.50;;;;;;4897768;29;20271;-83
2023/12/10 01:39:30;;;;;;;17.95;3.38;;;9.10;98.30;;;;;;4895886;29;20461;-84
2023/12/10 01:41:56;;;;;;;22.15;2.65;;;9.10;98.40;;;;;;4897329;29;20040;-84
2023/12/10 01:44:22;;;;;;;22.55;2.90;;;8.90;98.70;;;;;;4900930;29;20038;-84
2023/12/10 01:46:47;;;;;;;13.55;2.25;;;9.00;98.50;;;;;;4901043;29;20042;-85
2023/12/10 01:49:15;;;;;;;26.85;3.95;;;9.00;98.60;;;;;;4908224;29;20032;-85
2023/12/10 01:51:43;;;;;;;22.80;2.72;;;9.10;98.30;;;;;;4901396;29;20044;-84
2023/12/10 01:54:19;;;;;;;18.23;2.17;;;9.00;98.60;;;;;;4895995;29;20036;-86
2023/12/10 01:56:44;;;;;;;19.88;2.95;;;8.90;98.90;;;;;;4898970;29;20054;-85
2023/12/10 01:59:10;;;;;;;17.88;2.65;;;8.80;99.30;;;;;;4902389;29;20492;-85
2023/12/10 02:01:36;;;;;;;19.27;2.95;;;8.80;99.60;;;;;;4900117;29;20163;-85
2023/12/10 02:04:05;;;;;;;17.83;2.80;;;8.80;99.90;;;;;;4900348;29;20024;-85
2023/12/10 02:06:31;;;;;;;17.98;2.83;;;8.60;99.90;;;;;;4900962;29;20673;-85
2023/12/10 02:08:57;;;;;;;18.33;2.78;;;8.70;99.90;;;;;;4900764;29;20217;-85
2023/12/10 02:11:22;;;;;;;18.48;2.50;;;8.70;99.90;;;;;;4892582;29;20040;-85
2023/12/10 02:13:49;;;;;;;21.50;4.80;;;8.60;99.90;;;;;;4898174;29;20036;-85
2023/12/10 02:16:15;;;;;;;20.98;2.67;;;8.70;99.90;;;;;;4899350;29;20114;-85
2023/12/10 02:18:41;;;;;;;13.35;2.70;;;8.60;99.90;;;;;;4897572;29;20749;-85
2023/12/10 02:21:08;;;;;;;18.65;2.83;;;8.60;99.90;;;;;;4899934;29;20420;-85
2023/12/10 02:23:59;;;;;;;18.75;2.55;;;8.70;99.90;;;;;;4898274;29;20028;-85
2023/12/10 02:26:25;;;;;;;18.63;4.18;;;8.60;99.90;;;;;;4902334;29;20205;-86
2023/12/10 02:28:52;;;;;;;14.55;2.92;;;8.70;99.90;;;;;;4899774;29;20032;-85
2023/12/10 02:31:19;;;;;;;16.10;2.80;;;8.70;99.90;;;;;;4896059;29;20484;-85
2023/12/10 02:33:45;;;;;;;14.90;3.40;;;8.60;99.90;;;;;;4895354;29;20036;-85
2023/12/10 02:36:12;;;;;;;17.80;2.42;;;8.70;99.90;;;;;;4897682;29;20068;-85
2023/12/10 02:38:38;;;;;;;22.42;2.75;;;8.70;99.90;;;;;;4895840;29;20036;-85
2023/12/10 02:41:04;;;;;;;13.95;2.30;;;8.60;99.90;;;;;;4898760;29;20556;-86
2023/12/10 02:43:29;;;;;;;19.20;2.90;;;8.70;99.90;;;;;;4898871;29;20185;-85
2023/12/10 02:45:55;;;;;;;18.95;3.53;;;8.70;99.90;;;;;;4904329;29;20572;-85
2023/12/10 02:48:22;;;;;;;24.63;2.78;;;8.80;99.90;;;;;;4903220;29;20392;-85
2023/12/10 02:50:49;;;;;;;18.98;3.65;;;8.80;99.90;;;;;;4924889;29;20167;-85
2023/12/10 02:53:15;;;;;;;25.17;2.75;;;9.00;99.90;;;;;;4927407;28;20028;-86
2023/12/10 02:55:41;;;;;;;16.75;2.70;;;8.90;99.90;;;;;;4925708;28;20048;-85
2023/12/10 02:58:07;;;;;;;15.45;2.90;;;8.80;99.90;;;;;;4924525;28;20062;-85
2023/12/10 03:00:32;;;;;;;16.88;2.78;;;8.80;99.90;;;;;;4920389;28;20051;-83
2023/12/10 03:02:58;;;;;;;18.10;2.67;;;8.70;99.90;;;;;;4900578;29;20028;-85
2023/12/10 03:05:24;;;;;;;16.50;2.63;;;8.70;99.90;;;;;;4912505;29;20701;-85
2023/12/10 03:07:50;;;;;;;16.63;2.45;;;8.70;99.90;;;;;;4911775;29;20307;-84
2023/12/10 03:10:16;;;;;;;14.82;2.15;;;8.80;99.90;;;;;;4912148;29;20095;-85
2023/12/10 03:12:42;;;;;;;16.17;2.63;;;8.80;99.90;;;;;;4901834;29;20068;-85
2023/12/10 03:15:07;;;;;;;17.65;2.72;;;8.70;99.90;;;;;;4899276;29;20063;-86
2023/12/10 03:17:33;;;;;;;18.17;2.15;;;8.60;99.90;;;;;;4901050;29;20580;-86
2023/12/10 03:19:59;;;;;;;23.83;2.40;;;8.70;99.90;;;;;;4901748;29;20032;-85
2023/12/10 03:22:24;;;;;;;19.60;2.70;;;8.70;99.90;;;;;;4899625;29;20511;-86
2023/12/10 03:24:50;;;;;;;10.93;1.77;;;8.70;99.90;;;;;;4898566;29;21551;-86
2023/12/10 03:27:16;;;;;;;18.58;3.38;;;8.80;99.90;;;;;;4898155;29;20072;-85
2023/12/10 03:29:42;;;;;;;13.40;2.08;;;8.80;99.90;;;;;;4899752;29;20099;-85
2023/12/10 03:32:07;;;;;;;15.73;1.95;;;8.70;99.90;;;;;;4902988;29;20056;-86
2023/12/10 03:34:33;;;;;;;15.63;2.40;;;8.70;99.90;;;;;;4904006;29;20133;-85
2023/12/10 03:36:59;;;;;;;15.00;2.17;;;8.80;99.90;;;;;;4900080;29;20189;-86
2023/12/10 03:39:24;;;;;;;20.58;3.10;;;8.70;99.90;;;;;;4896105;29;20043;-85
2023/12/10 03:41:50;;;;;;;14.93;2.08;;;8.70;99.90;;;;;;4899670;29;20040;-86
2023/12/10 03:44:16;;;;;;;15.13;2.05;;;8.80;99.90;;;;;;4902176;29;20040;-85
2023/12/10 03:46:41;;;;;;;17.15;2.60;;;8.70;99.90;;;;;;4899210;29;20544;-85
2023/12/10 03:49:07;;;;;;;10.43;2.90;;;8.70;99.90;;;;;;4897890;29;20428;-85
2023/12/10 03:51:33;;;;;;;15.38;2.35;;;8.70;99.90;;;;;;4894650;29;20036;-85
2023/12/10 03:53:59;;;;;;;16.08;2.35;;;8.60;99.90;;;;;;4900325;29;20040;-85
2023/12/10 03:56:25;;;;;;;14.85;3.40;;;8.50;99.90;;;;;;4903117;29;20036;-86
2023/12/10 03:58:51;;;;;;;19.60;2.20;;;8.40;99.90;;;;;;4905360;29;20032;-86
2023/12/10 04:01:17;;;;;;;12.07;2.70;;;8.40;99.90;;;;;;4899266;29;20032;-86
2023/12/10 04:03:43;;;;;;;14.98;2.60;;;8.40;99.90;;;;;;4901060;29;20484;-86
2023/12/10 04:06:09;;;;;;;16.60;2.10;;;8.50;99.90;;;;;;4901869;29;20032;-84
2023/12/10 04:08:34;;;;;;;15.98;2.55;;;8.50;99.90;;;;;;4903057;29;20052;-85
2023/12/10 04:11:00;;;;;;;17.80;2.03;;;8.50;99.90;;;;;;4902998;29;20529;-85
2023/12/10 04:13:26;;;;;;;21.90;3.63;;;8.50;99.90;;;;;;4906099;29;20028;-84
2023/12/10 04:15:51;;;;;;;11.52;2.00;;;8.40;99.90;;;;;;4903348;29;20103;-86
2023/12/10 04:18:17;;;;;;;23.10;2.35;;;8.30;99.90;;;;;;4901557;29;20033;-86
2023/12/10 04:20:43;;;;;;;9.68;1.70;;;8.30;99.90;;;;;;4903866;29;20077;-85
2023/12/10 04:23:09;;;;;;;11.25;2.28;;;8.40;99.90;;;;;;4900410;29;20569;-85
2023/12/10 04:25:35;;;;;;;14.75;2.28;;;8.40;99.90;;;;;;4900458;29;20067;-86
2023/12/10 04:28:01;;;;;;;20.63;2.30;;;8.40;99.90;;;;;;4902926;29;20028;-86
2023/12/10 04:30:26;;;;;;;13.15;2.35;;;8.30;99.90;;;;;;4901018;29;20051;-85
2023/12/10 04:32:53;;;;;;;18.08;3.10;;;8.40;99.90;;;;;;4901944;29;20032;-86
2023/12/10 04:35:19;;;;;;;14.43;2.15;;;8.40;99.90;;;;;;4900294;29;20032;-85
2023/12/10 04:37:45;;;;;;;20.60;3.15;;;8.40;99.90;;;;;;4902358;29;20262;-85
2023/12/10 04:40:11;;;;;;;22.67;3.30;;;8.40;99.90;;;;;;4902919;29;20028;-85
2023/12/10 04:42:38;;;;;;;13.55;2.25;;;8.40;99.90;;;;;;4904524;29;20032;-85
2023/12/10 04:45:06;;;;;;;23.42;2.95;;;8.50;99.90;;;;;;4901932;29;20059;-85
2023/12/10 04:47:32;;;;;;;16.50;2.42;;;8.60;99.90;;;;;;4899589;29;20122;-85
2023/12/10 04:49:58;;;;;;;15.25;2.38;;;8.60;99.90;;;;;;4902096;29;20042;-85
2023/12/10 04:52:23;;;;;;;13.55;2.28;;;8.70;99.90;;;;;;4902940;29;20036;-85
2023/12/10 04:54:49;;;;;;;16.92;2.10;;;8.70;99.90;;;;;;4907703;29;20064;-85
2023/12/10 04:57:15;;;;;;;14.55;2.53;;;8.70;99.90;;;;;;4926279;29;20036;-85
2023/12/10 04:59:40;;;;;;;18.33;2.47;;;8.70;99.90;;;;;;4929750;28;20107;-85
2023/12/10 05:02:06;;;;;;;17.90;2.75;;;8.70;99.90;;;;;;4925655;29;20237;-85
2023/12/10 05:04:31;;;;;;;26.38;3.95;;;8.70;99.90;;;;;;4928919;29;20145;-85
2023/12/10 05:06:57;;;;;;;20.08;3.45;;;8.80;99.90;;;;;;4914977;29;20653;-85
2023/12/10 05:09:23;;;;;;;22.38;2.53;;;8.90;99.90;;;;;;4900180;29;20103;-85
2023/12/10 05:11:48;;;;;;;15.05;3.15;;;8.90;99.90;;;;;;4907615;29;20024;-85
2023/12/10 05:14:14;;;;;;;23.05;3.10;;;9.00;99.90;;;;;;4913899;29;20044;-84
2023/12/10 05:16:39;;;;;;;26.50;3.05;;;9.00;99.90;;;;;;4916134;29;20143;-85
2023/12/10 05:19:05;;;;;;;21.75;3.58;;;8.90;99.90;;;;;;4907116;29;20060;-85
2023/12/10 05:21:33;;;;;;;18.58;3.53;;;8.90;99.90;;;;;;4902553;29;20032;-86
2023/12/10 05:23:59;;;;;;;18.90;3.33;;;8.90;99.90;;;;;;4901442;29;20052;-85
2023/12/10 05:26:24;;;;;;;19.80;3.72;;;9.00;99.90;;;;;;4902398;29;20268;-85
2023/12/10 05:28:50;;;;;;;15.55;3.15;;;9.00;99.90;;;;;;4902139;29;20039;-85
2023/12/10 05:31:16;;;;;;;23.33;3.65;;;9.00;99.90;;;;;;4900812;29;20040;-86
2023/12/10 05:33:41;;;;;;;19.10;2.63;;;9.00;99.90;;;;;;4902738;29;20039;-86
2023/12/10 05:36:08;;;;;;;20.23;3.25;;;8.90;99.90;;;;;;4902482;29;20622;-86
2023/12/10 05:38:33;;;;;;;28.98;3.13;;;8.90;99.90;;;;;;4905241;29;20035;-85
2023/12/10 05:40:59;;;;;;;27.02;4.03;;;8.90;99.90;;;;;;4907781;29;20095;-86
2023/12/10 05:43:25;;;;;;;28.73;2.85;;;8.80;99.90;;;;;;4901482;29;20021;-84
2023/12/10 05:45:51;;;;;;;24.35;2.92;;;8.80;99.90;;;;;;4903238;29;20527;-82
2023/12/10 05:48:16;;;;;;;20.90;2.85;;;8.80;99.90;;;;;;4903114;29;20040;-85
2023/12/10 05:50:42;;;;;;;20.40;3.22;;;8.80;99.90;;;;;;4903878;29;20039;-86
2023/12/10 05:53:08;;;;;;;21.95;3.35;;;8.80;99.90;;;;;;4896785;29;20571;-85
2023/12/10 05:55:34;;;;;;;17.92;2.72;;;8.90;99.90;;;;;;4898736;29;20029;-85
2023/12/10 05:57:59;;;;;;;27.40;3.85;;;8.80;99.90;;;;;;4899303;29;20039;-84
2023/12/10 06:00:25;;;;;;;25.48;4.45;;;8.80;99.90;;;;;;4898294;29;20096;-82
2023/12/10 06:02:51;;;;;;;17.48;2.85;;;8.80;99.90;;;;;;4906938;29;20040;-85
2023/12/10 06:05:16;;;;;;;22.77;4.60;;;8.90;99.90;;;;;;4899238;29;20505;-86
2023/12/10 06:07:42;;;;;;;24.92;3.53;;;8.90;99.90;;;;;;4898525;29;20071;-84
2023/12/10 06:10:08;;;;;;;21.17;3.33;;;8.80;99.90;;;;;;4898424;29;20036;-86
2023/12/10 06:12:34;;;;;;;25.08;4.10;;;8.90;99.90;;;;;;4901804;29;20441;-85
2023/12/10 06:14:59;;;;;;;26.13;3.63;;;8.90;99.90;;;;;;4903197;29;20098;-85
2023/12/10 06:17:25;;;;;;;18.08;2.70;;;9.00;99.90;;;;;;4902336;29;20066;-85
2023/12/10 06:19:51;;;;;;;24.10;3.25;;;9.10;99.90;;;;;;4897995;29;20035;-85
2023/12/10 06:22:17;;;;;;;17.00;3.90;;;9.00;99.90;;;;;;4897511;29;20036;-85
2023/12/10 06:24:42;;;;;;;21.20;3.45;;;9.20;99.90;;;;;;4901250;29;20265;-86
2023/12/10 06:27:08;;;;;;;26.17;3.28;;;9.10;99.90;;;;;;4901892;29;20088;-85
2023/12/10 06:29:34;;;;;;;22.95;4.00;;;9.20;99.90;;;;;;4904220;29;20227;-85
2023/12/10 06:31:59;;;;;;;21.42;3.72;;;9.20;99.90;;;;;;4900363;29;20031;-85
2023/12/10 06:34:25;;;;;;;16.75;2.75;;;9.20;99.90;;;;;;4897245;29;20605;-85
2023/12/10 06:36:50;;;;;;;21.23;3.55;;;9.20;99.90;;;;;;4902961;29;20491;-84
2023/12/10 06:39:16;;;;;;;27.02;3.83;;;9.30;99.90;;;;;;4901527;29;20028;-85
2023/12/10 06:41:42;;;;;;;21.58;4.13;;;9.20;99.90;;;;;;4902323;29;20032;-85
2023/12/10 06:44:09;;;;;;;21.15;2.92;;;9.20;99.90;;;;;;4902668;29;20039;-84
2023/12/10 06:46:37;;;;;;;20.27;3.60;;;9.20;99.90;;;;;;4904134;29;20056;-84
2023/12/10 06:49:03;;;;;;;23.40;3.22;;;9.30;99.90;;;;;;4898496;29;20046;-84
2023/12/10 06:51:28;;;;;;;22.98;3.40;;;9.40;99.90;;;;;;4899660;29;20040;-85
2023/12/10 06:53:54;;;;;;;36.35;3.97;;;9.20;99.90;;;;;;4895144;29;20072;-85
2023/12/10 06:56:20;;;;;;;21.17;3.35;;;9.30;99.90;;;;;;4898309;29;20071;-84
2023/12/10 06:58:45;;;;;;;25.83;3.40;;;9.30;99.90;;;;;;4900884;29;20028;-84
2023/12/10 07:01:13;;;;;;;31.50;3.88;;;9.40;99.90;;;;;;4909400;29;20035;-84
2023/12/10 07:03:39;;;;;;;33.80;5.50;;;9.40;99.90;;;;;;4923072;28;20118;-85
2023/12/10 07:06:05;;;;;;;32.72;10.13;;;9.30;99.90;;;;;;4929937;29;20300;-84
2023/12/10 07:08:31;;;;;;;44.70;14.35;;;9.40;99.90;;;;;;4925070;29;20063;-84
2023/12/10 07:10:57;;;;;;;31.83;7.90;;;9.40;99.90;;;;;;4922986;29;20039;-84
2023/12/10 07:13:22;;;;;;;57.63;18.70;;;9.30;99.90;;;;;;4911365;29;20067;-85
2023/12/10 07:15:48;;;;;;;98.00;33.22;;;9.30;99.90;;;;;;4912693;29;20036;-84
2023/12/10 07:18:14;;;;;;;60.80;20.13;;;9.40;99.90;;;;;;4914477;29;20040;-84
2023/12/10 07:20:39;;;;;;;51.78;18.17;;;9.40;99.90;;;;;;4910272;29;20047;-85
2023/12/10 07:23:05;;;;;;;30.10;7.78;;;9.40;99.90;;;;;;4904457;29;20040;-85
2023/12/10 07:25:31;;;;;;;23.98;4.75;;;9.40;99.90;;;;;;4898488;29;20032;-85
2023/12/10 07:27:56;;;;;;;27.35;4.18;;;9.30;99.90;;;;;;4899481;29;20040;-85
2023/12/10 07:30:22;;;;;;;32.58;5.30;;;9.40;99.90;;;;;;4901588;29;20046;-85
2023/12/10 07:32:48;;;;;;;29.90;5.32;;;9.40;99.90;;;;;;4898112;29;21178;-85
2023/12/10 07:35:14;;;;;;;40.92;4.53;;;9.30;99.90;;;;;;4903413;29;20432;-84
2023/12/10 07:37:40;;;;;;;27.02;5.93;;;9.40;99.90;;;;;;4899288;29;20151;-85
2023/12/10 07:40:07;;;;;;;24.45;3.38;;;9.40;99.90;;;;;;4903910;29;20767;-85
2023/12/10 07:42:32;;;;;;;33.80;3.70;;;9.40;99.90;;;;;;4906776;29;20068;-85
2023/12/10 07:44:58;;;;;;;29.25;3.70;;;9.40;99.90;;;;;;4903127;29;20123;-85
2023/12/10 07:47:23;;;;;;;33.30;3.90;;;9.40;99.90;;;;;;4903777;29;20032;-85
2023/12/10 07:49:49;;;;;;;24.33;3.70;;;9.40;99.90;;;;;;4901035;29;20040;-85
2023/12/10 07:52:15;;;;;;;32.13;5.13;;;9.30;99.90;;;;;;4903256;29;20398;-85
2023/12/10 07:54:40;;;;;;;28.67;3.90;;;9.30;99.90;;;;;;4897547;29;20048;-85
2023/12/10 07:57:06;;;;;;;29.50;4.43;;;9.30;99.90;;;;;;4899283;29;20036;-84
2023/12/10 07:59:31;;;;;;;28.20;4.53;;;9.30;99.90;;;;;;4902173;29;20068;-85
2023/12/10 08:01:57;;;;;;;27.17;3.88;;;9.30;99.90;;;;;;4900091;29;20218;-85
2023/12/10 08:04:23;;;;;;;28.60;5.20;;;9.30;99.90;;;;;;4895756;29;20028;-85
2023/12/10 08:06:50;;;;;;;26.75;3.47;;;9.40;99.90;;;;;;4903706;29;20230;-85
2023/12/10 08:09:15;;;;;;;34.42;4.85;;;9.30;99.90;;;;;;4899622;29;20044;-84
2023/12/10 08:11:41;;;;;;;27.33;3.53;;;9.30;99.90;;;;;;4907084;29;20095;-84
2023/12/10 08:14:06;;;;;;;30.25;4.07;;;9.30;99.90;;;;;;4908102;29;20043;-83
2023/12/10 08:16:32;;;;;;;30.73;4.55;;;9.40;99.90;;;;;;4906001;29;20028;-82
2023/12/10 08:19:00;;;;;;;38.05;5.32;;;9.40;99.90;;;;;;4903355;29;20623;-84
2023/12/10 08:21:25;;;;;;;37.15;4.60;;;9.50;99.90;;;;;;4904396;29;20028;-85
2023/12/10 08:23:51;;;;;;;32.13;4.07;;;9.50;99.90;;;;;;4903599;29;20460;-84
2023/12/10 08:26:17;;;;;;;40.50;4.70;;;9.50;99.90;;;;;;4902001;29;20028;-85
2023/12/10 08:28:43;;;;;;;25.92;3.38;;;9.40;99.90;;;;;;4902222;29;20055;-85
2023/12/10 08:31:09;;;;;;;30.95;4.57;;;9.50;99.90;;;;;;4902064;29;20044;-84
2023/12/10 08:33:34;;;;;;;27.85;3.72;;;9.60;99.90;;;;;;4899525;29;20122;-84
2023/12/10 08:36:00;;;;;;;31.13;4.43;;;9.70;99.90;;;;;;4901249;29;20515;-84
2023/12/10 08:38:26;;;;;;;27.92;4.60;;;9.60;99.90;;;;;;4892927;29;20043;-84
2023/12/10 08:40:52;;;;;;;42.60;5.00;;;9.80;99.90;;;;;;4879557;29;20150;-83
2023/12/10 08:43:20;;;;;;;25.30;4.43;;;9.90;99.90;;;;;;4888433;29;20512;-85
2023/12/10 08:45:46;;;;;;;28.70;5.00;;;9.90;99.90;;;;;;4898795;29;20028;-83
2023/12/10 08:48:11;;;;;;;26.98;4.22;;;10.00;99.90;;;;;;4901180;29;20087;-84
2023/12/10 08:50:37;;;;;;;32.90;4.28;;;9.90;99.90;;;;;;4899821;29;20500;-84
2023/12/10 08:53:03;;;;;;;38.80;4.25;;;10.00;99.90;;;;;;4901020;29;20091;-85
2023/12/10 08:55:28;;;;;;;23.77;4.15;;;10.10;99.90;;;;;;4896262;29;20609;-83
2023/12/10 08:57:54;;;;;;;23.42;3.88;;;10.20;99.90;;;;;;4900909;29;20071;-84
2023/12/10 09:00:19;;;;;;;34.70;5.50;;;10.20;99.90;;;;;;4899561;29;20032;-83
2023/12/10 09:02:45;;;;;;;26.67;4.07;;;10.30;99.90;;;;;;4903216;29;20031;-83
2023/12/10 09:05:11;;;;;;;28.20;4.15;;;10.40;99.90;;;;;;4904877;29;20035;-83
2023/12/10 09:07:37;;;;;;;33.05;4.65;;;10.40;99.90;;;;;;4917752;29;20036;-83
2023/12/10 09:10:03;;;;;;;30.25;4.63;;;10.40;99.90;;;;;;4928735;28;20083;-83
2023/12/10 09:12:28;;;;;;;35.70;5.03;;;10.40;99.90;;;;;;4931616;28;20020;-85
2023/12/10 09:14:55;;;;;;;37.53;3.88;;;10.50;99.90;;;;;;4928783;29;20035;-83
2023/12/10 09:17:21;;;;;;;34.22;4.57;;;10.40;99.90;;;;;;4928344;29;20354;-85
2023/12/10 09:19:47;;;;;;;28.48;3.83;;;10.40;99.90;;;;;;4910101;29;20028;-85
2023/12/10 09:22:13;;;;;;;30.75;5.78;;;10.40;99.90;;;;;;4904384;29;20103;-85
2023/12/10 09:24:39;;;;;;;29.63;4.80;;;10.50;99.90;;;;;;4908988;29;20103;-84
2023/12/10 09:27:05;;;;;;;32.78;3.95;;;10.50;99.90;;;;;;4907744;29;20036;-84
2023/12/10 09:29:38;;;;;;;35.45;3.75;;;10.60;99.90;;;;;;4905295;29;20127;-84
2023/12/10 09:32:06;;;;;;;35.53;4.05;;;10.60;99.90;;;;;;4902328;29;20028;-84
2023/12/10 09:34:32;;;;;;;25.95;3.70;;;10.60;99.90;;;;;;4902076;29;20040;-84
2023/12/10 09:36:58;;;;;;;19.23;4.57;;;10.70;99.90;;;;;;4898431;29;20068;-84
2023/12/10 09:39:24;;;;;;;34.42;5.28;;;10.80;99.90;;;;;;4900024;29;20032;-84
2023/12/10 09:41:50;;;;;;;27.05;3.63;;;10.80;99.90;;;;;;4900986;29;20024;-85
2023/12/10 09:44:15;;;;;;;28.33;3.67;;;10.80;99.90;;;;;;4900270;29;20079;-84
2023/12/10 09:46:41;;;;;;;29.63;4.03;;;11.00;99.90;;;;;;4904268;29;20488;-84
2023/12/10 09:49:07;;;;;;;27.83;4.18;;;11.00;99.90;;;;;;4903423;29;20146;-84
2023/12/10 09:51:33;;;;;;;29.75;3.88;;;11.00;99.90;;;;;;4905713;29;20038;-85
2023/12/10 09:53:58;;;;;;;30.33;4.18;;;11.10;99.90;;;;;;4902004;29;20036;-84
2023/12/10 09:56:24;;;;;;;22.95;3.60;;;11.10;99.90;;;;;;4899982;29;20071;-84
2023/12/10 09:58:50;;;;;;;22.48;3.75;;;11.20;99.90;;;;;;4895478;29;20044;-84
2023/12/10 10:01:15;;;;;;;26.15;3.40;;;11.10;99.90;;;;;;4902649;29;20028;-84
2023/12/10 10:03:41;;;;;;;27.60;3.20;;;11.20;99.90;;;;;;4897803;29;20028;-84
2023/12/10 10:06:08;;;;;;;19.92;3.50;;;11.20;99.90;;;;;;4901117;29;20505;-84
2023/12/10 10:08:34;;;;;;;20.00;3.38;;;11.20;99.90;;;;;;4901638;29;20339;-84
2023/12/10 10:11:00;;;;;;;29.42;2.92;;;11.20;99.90;;;;;;4898872;29;20250;-84
2023/12/10 10:13:26;;;;;;;18.40;3.58;;;11.20;99.90;;;;;;4899834;29;20150;-84
2023/12/10 10:15:53;;;;;;;19.08;3.40;;;11.30;99.90;;;;;;4899399;29;20028;-84
2023/12/10 10:18:20;;;;;;;22.30;4.13;;;11.20;99.90;;;;;;4902728;29;20051;-85
2023/12/10 10:20:47;;;;;;;21.23;3.80;;;11.20;99.90;;;;;;4897165;29;20047;-84
2023/12/10 10:23:14;;;;;;;21.10;2.72;;;11.20;99.90;;;;;;4900072;29;20036;-84
2023/12/10 10:25:40;;;;;;;27.08;3.60;;;11.20;99.90;;;;;;4899876;29;20492;-84
2023/12/10 10:28:09;;;;;;;25.90;4.65;;;11.20;99.90;;;;;;4901296;29;20051;-84
2023/12/10 10:30:35;;;;;;;18.52;3.20;;;11.20;99.90;;;;;;4899633;29;20024;-84
2023/12/10 10:33:01;;;;;;;22.33;2.97;;;11.20;99.90;;;;;;4902092;29;20094;-83
2023/12/10 10:35:27;;;;;;;26.33;3.45;;;11.10;99.90;;;;;;4898270;29;20044;-83
2023/12/10 10:37:54;;;;;;;23.88;3.22;;;11.10;99.90;;;;;;4898363;29;20484;-84
2023/12/10 10:40:20;;;;;;;25.67;3.15;;;11.10;99.90;;;;;;4894870;29;20044;-84
2023/12/10 10:42:45;;;;;;;27.25;3.70;;;11.00;99.90;;;;;;4902398;29;20031;-84
2023/12/10 10:45:11;;;;;;;19.70;3.30;;;11.10;99.90;;;;;;4906566;29;20028;-84
2023/12/10 10:47:37;;;;;;;22.08;4.50;;;11.00;99.90;;;;;;4907689;29;20043;-84
2023/12/10 10:50:04;;;;;;;19.77;3.40;;;11.00;99.90;;;;;;4901230;29;20432;-83
2023/12/10 10:52:33;;;;;;;28.63;4.50;;;11.00;99.90;;;;;;4900589;29;20056;-82
2023/12/10 10:55:00;;;;;;;25.58;4.93;;;10.80;99.90;;;;;;4898347;29;20044;-83
2023/12/10 10:57:28;;;;;;;19.95;3.58;;;10.80;99.90;;;;;;4902102;29;20423;-84
2023/12/10 10:59:53;;;;;;;22.75;4.28;;;10.70;99.90;;;;;;4900863;29;20066;-82
2023/12/10 11:02:19;;;;;;;26.48;3.47;;;10.70;99.90;;;;;;4895878;29;20151;-82
2023/12/10 11:04:47;;;;;;;20.27;3.00;;;10.70;99.90;;;;;;4897585;29;20031;-83
2023/12/10 11:07:15;;;;;;;20.98;2.60;;;10.70;99.90;;;;;;4902584;29;20044;-83
2023/12/10 11:10:02;;;;;;;21.23;3.63;;;10.80;99.90;;;;;;4901280;29;20056;-81
2023/12/10 11:12:44;;;;;;;38.15;4.28;;;10.70;99.90;;;;;;4899776;29;20771;-81
2023/12/10 11:15:24;;;;;;;30.00;4.63;;;10.60;99.90;;;;;;4903783;29;20047;-81
2023/12/10 11:17:58;;;;;;;28.00;3.03;;;10.60;99.90;;;;;;4902296;29;20092;-81
2023/12/10 11:20:46;;;;;;;21.52;3.40;;;10.50;99.90;;;;;;4919365;29;20035;-81
2023/12/10 11:23:16;;;;;;;15.13;2.70;;;10.50;99.90;;;;;;4922069;29;20151;-81
2023/12/10 11:25:42;;;;;;;19.23;4.35;;;10.50;99.90;;;;;;4923406;29;20031;-81
2023/12/10 11:28:17;;;;;;;17.00;3.13;;;10.50;99.90;;;;;;4914985;29;20147;-80
2023/12/10 11:30:43;;;;;;;19.77;3.22;;;10.50;99.90;;;;;;4900967;29;20274;-80
2023/12/10 11:33:11;;;;;;;21.25;4.32;;;10.40;99.90;;;;;;4901696;29;20076;-80
2023/12/10 11:35:37;;;;;;;27.13;3.75;;;10.40;99.90;;;;;;4901864;29;20381;-81
2023/12/10 11:38:04;;;;;;;24.85;4.57;;;10.30;99.90;;;;;;4902508;29;20436;-80
2023/12/10 11:40:31;;;;;;;24.85;3.78;;;10.30;99.90;;;;;;4902717;29;20032;-80
2023/12/10 11:43:12;;;;;;;24.60;3.30;;;10.20;99.90;;;;;;4903080;29;20024;-79
2023/12/10 11:45:38;;;;;;;28.55;3.92;;;10.30;99.90;;;;;;4898964;29;20118;-80
2023/12/10 11:48:04;;;;;;;29.40;3.90;;;10.30;99.90;;;;;;4901891;29;20508;-81
2023/12/10 11:50:32;;;;;;;18.23;2.60;;;10.30;99.90;;;;;;4898623;29;20040;-79
2023/12/10 11:52:58;;;;;;;31.13;3.03;;;10.30;99.90;;;;;;4901276;29;20040;-80
2023/12/10 11:55:24;;;;;;;23.45;2.67;;;10.20;99.90;;;;;;4904118;29;20029;-78
2023/12/10 11:57:50;;;;;;;27.05;3.97;;;10.20;99.90;;;;;;4898466;29;20071;-79
2023/12/10 12:00:16;;;;;;;21.48;3.53;;;10.20;99.90;;;;;;4901858;29;20038;-78
2023/12/10 12:02:44;;;;;;;23.33;3.10;;;10.20;99.90;;;;;;4903511;29;20133;-79
2023/12/10 12:05:12;;;;;;;20.27;3.53;;;10.20;99.90;;;;;;4895167;29;20051;-79
2023/12/10 12:07:38;;;;;;;26.90;3.47;;;10.20;99.90;;;;;;4901161;29;20060;-79
2023/12/10 12:10:06;;;;;;;18.88;2.83;;;10.10;99.90;;;;;;4897484;29;20709;-78
2023/12/10 12:12:36;;;;;;;20.67;3.33;;;10.10;99.90;;;;;;4900247;29;20024;-78
2023/12/10 12:15:02;;;;;;;23.05;3.80;;;10.10;99.90;;;;;;4896742;29;20484;-77
2023/12/10 12:17:29;;;;;;;18.88;2.85;;;10.10;99.90;;;;;;4894690;29;20039;-78
2023/12/10 12:19:54;;;;;;;26.60;2.90;;;10.00;99.90;;;;;;4901258;29;20064;-78
2023/12/10 12:22:20;;;;;;;18.13;2.95;;;10.20;99.90;;;;;;4902662;29;20189;-78
2023/12/10 12:24:45;;;;;;;17.83;3.63;;;10.10;99.90;;;;;;4901678;29;20160;-79
2023/12/10 12:27:12;;;;;;;14.90;1.83;;;10.10;99.90;;;;;;4903653;29;20285;-79
2023/12/10 12:29:38;;;;;;;14.48;2.10;;;10.10;99.90;;;;;;4903922;29;21831;-78
2023/12/10 12:32:05;;;;;;;14.75;2.78;;;10.00;99.90;;;;;;4900862;29;20043;-79
2023/12/10 12:34:31;;;;;;;21.23;2.92;;;10.00;99.90;;;;;;4901004;29;20512;-81
2023/12/10 12:36:57;;;;;;;19.90;2.72;;;9.80;99.90;;;;;;4904322;29;20035;-88
2023/12/10 12:39:25;;;;;;;17.10;2.72;;;9.90;99.90;;;;;;4904276;29;20035;-88